sensor_id;sensor_type;location;lat;lon;timestamp;pressure;altitude;pressure_sealevel;temperature;humidity
65010;BME280;51556;50.002;22.014;2022-12-18T00:01:24;100527.14;;;-3.29;74.03
65010;BME280;51556;50.002;22.014;2022-12-18T00:03:51;100524.89;;;-3.22;73.85
65010;BME280;51556;50.002;22.014;2022-12-18T00:06:16;100532.09;;;-3.26;73.89
65010;BME280;51556;50.002;22.014;2022-12-18T00:08:43;100536.65;;;-3.25;73.80
65010;BME280;51556;50.002;22.014;2022-12-18T00:11:15;100541.09;;;-3.29;73.99
65010;BME280;51556;50.002;22.014;2022-12-18T00:13:40;100547.47;;;-3.22;74.08
65010;BME280;51556;50.002;22.014;2022-12-18T00:16:09;100551.19;;;-3.16;73.99
65010;BME280;51556;50.002;22.014;2022-12-18T00:18:36;100553.73;;;-3.10;73.92
65010;BME280;51556;50.002;22.014;2022-12-18T00:21:04;100550.63;;;-3.03;73.81
65010;BME280;51556;50.002;22.014;2022-12-18T00:23:30;100557.86;;;-3.03;73.48
65010;BME280;51556;50.002;22.014;2022-12-18T00:26:07;100559.49;;;-3.05;73.35
65010;BME280;51556;50.002;22.014;2022-12-18T00:28:34;100561.94;;;-3.08;73.52
65010;BME280;51556;50.002;22.014;2022-12-18T00:31:11;100564.42;;;-3.17;73.81
65010;BME280;51556;50.002;22.014;2022-12-18T00:33:37;100566.66;;;-3.17;73.90
65010;BME280;51556;50.002;22.014;2022-12-18T00:36:10;100569.16;;;-3.12;73.97
65010;BME280;51556;50.002;22.014;2022-12-18T00:38:36;100574.47;;;-3.05;73.83
65010;BME280;51556;50.002;22.014;2022-12-18T00:41:03;100571.45;;;-3.00;73.81
65010;BME280;51556;50.002;22.014;2022-12-18T00:43:28;100581.18;;;-2.98;73.68
65010;BME280;51556;50.002;22.014;2022-12-18T00:45:54;100583.06;;;-2.94;73.59
65010;BME280;51556;50.002;22.014;2022-12-18T00:48:19;100589.52;;;-2.93;73.73
65010;BME280;51556;50.002;22.014;2022-12-18T00:50:45;100591.56;;;-2.90;73.60
65010;BME280;51556;50.002;22.014;2022-12-18T00:53:11;100600.20;;;-2.86;73.56
65010;BME280;51556;50.002;22.014;2022-12-18T00:55:38;100597.92;;;-2.83;73.59
65010;BME280;51556;50.002;22.014;2022-12-18T00:58:04;100599.10;;;-2.80;73.42
65010;BME280;51556;50.002;22.014;2022-12-18T01:00:29;100606.88;;;-2.76;73.42
65010;BME280;51556;50.002;22.014;2022-12-18T01:02:55;100610.98;;;-2.73;73.25
65010;BME280;51556;50.002;22.014;2022-12-18T01:05:20;100616.78;;;-2.75;73.02
65010;BME280;51556;50.002;22.014;2022-12-18T01:07:46;100622.14;;;-2.78;73.10
65010;BME280;51556;50.002;22.014;2022-12-18T01:10:12;100629.02;;;-2.78;73.07
65010;BME280;51556;50.002;22.014;2022-12-18T01:12:37;100638.40;;;-2.83;72.96
65010;BME280;51556;50.002;22.014;2022-12-18T01:15:04;100639.48;;;-2.90;72.98
65010;BME280;51556;50.002;22.014;2022-12-18T01:17:30;100643.48;;;-3.00;72.90
65010;BME280;51556;50.002;22.014;2022-12-18T01:19:55;100641.80;;;-3.06;73.05
65010;BME280;51556;50.002;22.014;2022-12-18T01:22:20;100644.33;;;-3.07;72.93
65010;BME280;51556;50.002;22.014;2022-12-18T01:24:46;100652.88;;;-3.08;72.87
65010;BME280;51556;50.002;22.014;2022-12-18T01:27:11;100658.39;;;-3.08;72.43
65010;BME280;51556;50.002;22.014;2022-12-18T01:29:37;100660.23;;;-3.16;72.40
65010;BME280;51556;50.002;22.014;2022-12-18T01:32:02;100670.54;;;-3.23;72.10
65010;BME280;51556;50.002;22.014;2022-12-18T01:34:27;100678.48;;;-3.37;72.40
65010;BME280;51556;50.002;22.014;2022-12-18T01:36:53;100677.21;;;-3.41;72.49
65010;BME280;51556;50.002;22.014;2022-12-18T01:39:18;100683.65;;;-3.53;72.62
65010;BME280;51556;50.002;22.014;2022-12-18T01:41:44;100685.77;;;-3.52;72.66
65010;BME280;51556;50.002;22.014;2022-12-18T01:52:33;100703.05;;;-3.77;73.19
65010;BME280;51556;50.002;22.014;2022-12-18T01:55:00;100703.94;;;-3.80;73.38
65010;BME280;51556;50.002;22.014;2022-12-18T01:57:28;100711.42;;;-3.82;73.69
65010;BME280;51556;50.002;22.014;2022-12-18T01:59:57;100713.12;;;-3.91;74.05
65010;BME280;51556;50.002;22.014;2022-12-18T02:02:26;100714.16;;;-3.91;74.10
65010;BME280;51556;50.002;22.014;2022-12-18T02:04:52;100717.58;;;-3.92;74.28
65010;BME280;51556;50.002;22.014;2022-12-18T02:09:48;100714.48;;;-3.85;74.48
65010;BME280;51556;50.002;22.014;2022-12-18T02:12:24;100716.52;;;-3.79;74.45
65010;BME280;51556;50.002;22.014;2022-12-18T02:17:21;100719.96;;;-3.79;74.28
65010;BME280;51556;50.002;22.014;2022-12-18T02:28:11;100731.87;;;-3.65;74.65
65010;BME280;51556;50.002;22.014;2022-12-18T02:30:39;100730.51;;;-3.59;74.71
65010;BME280;51556;50.002;22.014;2022-12-18T02:33:07;100734.67;;;-3.58;74.80
65010;BME280;51556;50.002;22.014;2022-12-18T02:35:34;100734.89;;;-3.54;74.77
65010;BME280;51556;50.002;22.014;2022-12-18T02:38:03;100740.02;;;-3.49;74.62
65010;BME280;51556;50.002;22.014;2022-12-18T02:40:30;100747.39;;;-3.52;74.73
65010;BME280;51556;50.002;22.014;2022-12-18T02:43:02;100748.61;;;-3.55;74.69
65010;BME280;51556;50.002;22.014;2022-12-18T02:45:28;100758.52;;;-3.53;74.61
65010;BME280;51556;50.002;22.014;2022-12-18T02:47:53;100760.98;;;-3.59;74.76
65010;BME280;51556;50.002;22.014;2022-12-18T02:50:28;100767.55;;;-3.55;74.83
65010;BME280;51556;50.002;22.014;2022-12-18T02:55:34;100767.84;;;-3.59;74.43
65010;BME280;51556;50.002;22.014;2022-12-18T03:00:47;100767.02;;;-3.71;74.64
65010;BME280;51556;50.002;22.014;2022-12-18T03:03:35;100769.98;;;-3.83;74.78
65010;BME280;51556;50.002;22.014;2022-12-18T03:06:12;100772.55;;;-3.84;75.00
65010;BME280;51556;50.002;22.014;2022-12-18T03:08:48;100771.66;;;-3.87;75.11
65010;BME280;51556;50.002;22.014;2022-12-18T03:11:15;100777.00;;;-3.84;75.01
65010;BME280;51556;50.002;22.014;2022-12-18T03:13:51;100777.88;;;-3.81;74.91
65010;BME280;51556;50.002;22.014;2022-12-18T03:16:25;100782.62;;;-3.79;75.07
65010;BME280;51556;50.002;22.014;2022-12-18T03:18:56;100784.70;;;-3.85;74.91
65010;BME280;51556;50.002;22.014;2022-12-18T03:21:28;100787.10;;;-3.88;75.04
65010;BME280;51556;50.002;22.014;2022-12-18T03:23:55;100792.16;;;-3.81;74.85
65010;BME280;51556;50.002;22.014;2022-12-18T03:26:24;100792.77;;;-3.76;74.63
65010;BME280;51556;50.002;22.014;2022-12-18T03:28:53;100793.57;;;-3.71;74.77
65010;BME280;51556;50.002;22.014;2022-12-18T03:31:23;100801.46;;;-3.74;74.17
65010;BME280;51556;50.002;22.014;2022-12-18T03:33:57;100801.17;;;-3.70;74.13
65010;BME280;51556;50.002;22.014;2022-12-18T03:36:24;100803.35;;;-3.74;73.71
65010;BME280;51556;50.002;22.014;2022-12-18T03:38:50;100804.39;;;-3.74;73.69
65010;BME280;51556;50.002;22.014;2022-12-18T03:41:23;100809.36;;;-3.81;73.35
65010;BME280;51556;50.002;22.014;2022-12-18T03:46:33;100821.58;;;-4.08;73.24
65010;BME280;51556;50.002;22.014;2022-12-18T03:52:01;100839.55;;;-4.16;73.84
65010;BME280;51556;50.002;22.014;2022-12-18T03:54:28;100838.58;;;-4.06;73.85
65010;BME280;51556;50.002;22.014;2022-12-18T03:57:19;100840.31;;;-4.02;73.57
65010;BME280;51556;50.002;22.014;2022-12-18T03:59:49;100845.63;;;-4.13;72.99
65010;BME280;51556;50.002;22.014;2022-12-18T04:02:17;100850.04;;;-4.16;73.59
65010;BME280;51556;50.002;22.014;2022-12-18T04:04:43;100851.42;;;-4.22;73.56
65010;BME280;51556;50.002;22.014;2022-12-18T04:07:10;100852.69;;;-4.30;73.62
65010;BME280;51556;50.002;22.014;2022-12-18T04:09:38;100856.25;;;-4.28;73.62
65010;BME280;51556;50.002;22.014;2022-12-18T04:12:04;100855.70;;;-4.25;73.61
65010;BME280;51556;50.002;22.014;2022-12-18T04:14:29;100857.10;;;-4.22;73.11
65010;BME280;51556;50.002;22.014;2022-12-18T04:16:54;100861.80;;;-4.27;73.09
65010;BME280;51556;50.002;22.014;2022-12-18T04:19:20;100865.47;;;-4.23;73.04
65010;BME280;51556;50.002;22.014;2022-12-18T04:21:45;100867.02;;;-4.20;72.45
65010;BME280;51556;50.002;22.014;2022-12-18T04:24:11;100875.81;;;-4.25;72.22
65010;BME280;51556;50.002;22.014;2022-12-18T04:26:36;100881.14;;;-4.40;72.10
65010;BME280;51556;50.002;22.014;2022-12-18T04:29:02;100881.23;;;-4.41;72.67
65010;BME280;51556;50.002;22.014;2022-12-18T04:31:27;100889.83;;;-4.45;72.51
65010;BME280;51556;50.002;22.014;2022-12-18T04:33:52;100895.05;;;-4.43;72.61
65010;BME280;51556;50.002;22.014;2022-12-18T04:36:18;100899.27;;;-4.50;72.27
65010;BME280;51556;50.002;22.014;2022-12-18T04:38:43;100904.95;;;-4.56;72.26
65010;BME280;51556;50.002;22.014;2022-12-18T04:41:09;100909.36;;;-4.63;72.26
65010;BME280;51556;50.002;22.014;2022-12-18T04:43:34;100912.36;;;-4.64;72.61
65010;BME280;51556;50.002;22.014;2022-12-18T04:46:06;100913.48;;;-4.74;72.91
65010;BME280;51556;50.002;22.014;2022-12-18T04:48:32;100916.46;;;-4.67;73.05
65010;BME280;51556;50.002;22.014;2022-12-18T04:50:58;100919.39;;;-4.59;72.84
65010;BME280;51556;50.002;22.014;2022-12-18T04:53:23;100921.99;;;-4.53;72.87
65010;BME280;51556;50.002;22.014;2022-12-18T04:55:49;100927.42;;;-4.48;72.52
65010;BME280;51556;50.002;22.014;2022-12-18T04:58:14;100931.20;;;-4.45;72.54
65010;BME280;51556;50.002;22.014;2022-12-18T05:00:40;100934.80;;;-4.42;72.24
65010;BME280;51556;50.002;22.014;2022-12-18T05:03:05;100932.35;;;-4.46;72.29
65010;BME280;51556;50.002;22.014;2022-12-18T05:05:30;100930.77;;;-4.44;72.29
65010;BME280;51556;50.002;22.014;2022-12-18T05:07:56;100932.50;;;-4.47;72.27
65010;BME280;51556;50.002;22.014;2022-12-18T05:10:21;100933.44;;;-4.45;71.70
65010;BME280;51556;50.002;22.014;2022-12-18T05:12:47;100938.63;;;-4.42;71.70
65010;BME280;51556;50.002;22.014;2022-12-18T05:15:31;100935.36;;;-4.45;71.50
65010;BME280;51556;50.002;22.014;2022-12-18T05:17:58;100940.71;;;-4.44;71.50
65010;BME280;51556;50.002;22.014;2022-12-18T05:20:24;100942.95;;;-4.38;71.58
65010;BME280;51556;50.002;22.014;2022-12-18T05:22:51;100945.19;;;-4.29;71.84
65010;BME280;51556;50.002;22.014;2022-12-18T05:25:17;100950.86;;;-4.21;71.56
65010;BME280;51556;50.002;22.014;2022-12-18T05:27:43;100955.35;;;-4.24;71.28
65010;BME280;51556;50.002;22.014;2022-12-18T05:30:09;100959.13;;;-4.21;71.27
65010;BME280;51556;50.002;22.014;2022-12-18T05:32:35;100964.79;;;-4.15;71.23
65010;BME280;51556;50.002;22.014;2022-12-18T05:35:00;100964.36;;;-4.23;70.97
65010;BME280;51556;50.002;22.014;2022-12-18T05:37:26;100968.11;;;-4.20;71.06
65010;BME280;51556;50.002;22.014;2022-12-18T05:39:51;100976.09;;;-4.25;71.11
65010;BME280;51556;50.002;22.014;2022-12-18T05:42:17;100977.64;;;-4.25;71.13
65010;BME280;51556;50.002;22.014;2022-12-18T05:44:43;100973.13;;;-4.28;70.97
65010;BME280;51556;50.002;22.014;2022-12-18T05:47:08;100972.25;;;-4.23;71.06
65010;BME280;51556;50.002;22.014;2022-12-18T05:49:34;100972.21;;;-4.23;70.79
65010;BME280;51556;50.002;22.014;2022-12-18T05:51:59;100979.67;;;-4.19;70.52
65010;BME280;51556;50.002;22.014;2022-12-18T05:54:27;100979.95;;;-4.15;70.62
65010;BME280;51556;50.002;22.014;2022-12-18T05:56:52;100986.50;;;-4.12;70.76
65010;BME280;51556;50.002;22.014;2022-12-18T05:59:17;100988.25;;;-4.08;70.59
65010;BME280;51556;50.002;22.014;2022-12-18T06:01:43;100988.98;;;-4.11;69.89
65010;BME280;51556;50.002;22.014;2022-12-18T06:04:09;100987.83;;;-4.16;70.38
65010;BME280;51556;50.002;22.014;2022-12-18T06:06:34;100986.10;;;-4.19;70.31
65010;BME280;51556;50.002;22.014;2022-12-18T06:08:59;100987.48;;;-4.21;70.41
65010;BME280;51556;50.002;22.014;2022-12-18T06:11:26;100992.23;;;-4.17;70.67
65010;BME280;51556;50.002;22.014;2022-12-18T06:13:53;100993.73;;;-4.17;70.46
65010;BME280;51556;50.002;22.014;2022-12-18T06:16:19;100998.70;;;-4.12;70.59
65010;BME280;51556;50.002;22.014;2022-12-18T06:18:45;101003.42;;;-4.16;70.11
65010;BME280;51556;50.002;22.014;2022-12-18T06:21:11;101008.30;;;-4.18;70.29
65010;BME280;51556;50.002;22.014;2022-12-18T06:23:36;101013.01;;;-4.17;70.47
65010;BME280;51556;50.002;22.014;2022-12-18T06:26:07;101014.88;;;-4.05;71.02
65010;BME280;51556;50.002;22.014;2022-12-18T06:28:33;101015.56;;;-3.91;71.03
65010;BME280;51556;50.002;22.014;2022-12-18T06:30:59;101015.81;;;-3.78;70.84
65010;BME280;51556;50.002;22.014;2022-12-18T06:33:27;101019.35;;;-3.67;70.73
65010;BME280;51556;50.002;22.014;2022-12-18T06:35:54;101023.70;;;-3.55;70.86
65010;BME280;51556;50.002;22.014;2022-12-18T06:38:19;101027.60;;;-3.40;71.04
65010;BME280;51556;50.002;22.014;2022-12-18T06:40:44;101032.67;;;-3.26;70.73
65010;BME280;51556;50.002;22.014;2022-12-18T06:43:10;101033.86;;;-3.15;70.41
65010;BME280;51556;50.002;22.014;2022-12-18T06:45:35;101036.05;;;-3.03;70.17
65010;BME280;51556;50.002;22.014;2022-12-18T06:48:01;101039.31;;;-3.01;69.12
65010;BME280;51556;50.002;22.014;2022-12-18T06:50:27;101037.45;;;-3.07;68.41
65010;BME280;51556;50.002;22.014;2022-12-18T06:52:52;101038.73;;;-3.11;68.87
65010;BME280;51556;50.002;22.014;2022-12-18T06:55:17;101042.45;;;-3.06;69.44
65010;BME280;51556;50.002;22.014;2022-12-18T06:57:43;101043.16;;;-2.99;69.17
65010;BME280;51556;50.002;22.014;2022-12-18T07:00:09;101047.90;;;-2.91;69.35
65010;BME280;51556;50.002;22.014;2022-12-18T07:02:34;101045.23;;;-2.84;68.89
65010;BME280;51556;50.002;22.014;2022-12-18T07:05:00;101055.14;;;-2.82;68.93
65010;BME280;51556;50.002;22.014;2022-12-18T07:07:25;101056.64;;;-2.77;69.28
65010;BME280;51556;50.002;22.014;2022-12-18T07:09:51;101065.66;;;-2.66;69.20
65010;BME280;51556;50.002;22.014;2022-12-18T07:12:17;101063.66;;;-2.59;68.82
65010;BME280;51556;50.002;22.014;2022-12-18T07:14:42;101067.60;;;-2.55;68.70
65010;BME280;51556;50.002;22.014;2022-12-18T07:17:08;101072.79;;;-2.52;68.69
65010;BME280;51556;50.002;22.014;2022-12-18T07:19:33;101081.97;;;-2.48;68.56
65010;BME280;51556;50.002;22.014;2022-12-18T07:21:59;101085.59;;;-2.46;68.50
65010;BME280;51556;50.002;22.014;2022-12-18T07:24:24;101084.52;;;-2.46;68.58
65010;BME280;51556;50.002;22.014;2022-12-18T07:26:50;101087.73;;;-2.44;68.45
65010;BME280;51556;50.002;22.014;2022-12-18T07:29:15;101091.30;;;-2.48;67.31
65010;BME280;51556;50.002;22.014;2022-12-18T07:31:40;101095.13;;;-2.54;68.24
65010;BME280;51556;50.002;22.014;2022-12-18T07:34:10;101100.33;;;-2.56;68.15
65010;BME280;51556;50.002;22.014;2022-12-18T07:36:36;101102.70;;;-2.54;68.43
65010;BME280;51556;50.002;22.014;2022-12-18T07:39:02;101098.44;;;-2.47;68.30
65010;BME280;51556;50.002;22.014;2022-12-18T07:41:27;101098.58;;;-2.41;68.34
65010;BME280;51556;50.002;22.014;2022-12-18T07:43:52;101103.03;;;-2.42;67.65
65010;BME280;51556;50.002;22.014;2022-12-18T07:46:18;101102.14;;;-2.45;67.93
65010;BME280;51556;50.002;22.014;2022-12-18T07:48:44;101109.69;;;-2.46;67.57
65010;BME280;51556;50.002;22.014;2022-12-18T07:51:12;101116.23;;;-2.55;67.84
65010;BME280;51556;50.002;22.014;2022-12-18T07:53:38;101114.56;;;-2.61;67.80
65010;BME280;51556;50.002;22.014;2022-12-18T07:56:07;101120.42;;;-2.64;68.23
65010;BME280;51556;50.002;22.014;2022-12-18T07:58:34;101128.34;;;-2.67;68.08
65010;BME280;51556;50.002;22.014;2022-12-18T08:01:07;101133.52;;;-2.64;68.40
65010;BME280;51556;50.002;22.014;2022-12-18T08:03:33;101133.55;;;-2.64;68.49
65010;BME280;51556;50.002;22.014;2022-12-18T08:06:01;101132.65;;;-2.64;68.40
65010;BME280;51556;50.002;22.014;2022-12-18T08:08:27;101135.91;;;-2.65;68.82
65010;BME280;51556;50.002;22.014;2022-12-18T08:10:53;101141.79;;;-2.58;68.92
65010;BME280;51556;50.002;22.014;2022-12-18T08:13:19;101137.91;;;-2.47;69.08
65010;BME280;51556;50.002;22.014;2022-12-18T08:15:44;101142.46;;;-2.37;68.81
65010;BME280;51556;50.002;22.014;2022-12-18T08:18:09;101140.33;;;-2.38;68.47
65010;BME280;51556;50.002;22.014;2022-12-18T08:20:35;101142.46;;;-2.34;68.45
65010;BME280;51556;50.002;22.014;2022-12-18T08:23:00;101148.72;;;-2.33;68.66
65010;BME280;51556;50.002;22.014;2022-12-18T08:25:25;101156.14;;;-2.29;68.12
65010;BME280;51556;50.002;22.014;2022-12-18T08:27:51;101159.49;;;-2.34;68.66
65010;BME280;51556;50.002;22.014;2022-12-18T08:30:16;101165.39;;;-2.30;68.44
65010;BME280;51556;50.002;22.014;2022-12-18T08:32:42;101164.62;;;-2.29;68.55
65010;BME280;51556;50.002;22.014;2022-12-18T08:35:07;101167.71;;;-2.26;68.96
65010;BME280;51556;50.002;22.014;2022-12-18T08:37:33;101172.29;;;-2.21;68.64
65010;BME280;51556;50.002;22.014;2022-12-18T08:39:59;101172.04;;;-2.32;68.00
65010;BME280;51556;50.002;22.014;2022-12-18T08:42:24;101177.02;;;-2.51;68.50
65010;BME280;51556;50.002;22.014;2022-12-18T08:45:08;101173.36;;;-2.49;69.13
65010;BME280;51556;50.002;22.014;2022-12-18T08:47:34;101182.01;;;-2.39;69.12
65010;BME280;51556;50.002;22.014;2022-12-18T08:49:59;101183.32;;;-2.34;68.80
65010;BME280;51556;50.002;22.014;2022-12-18T08:52:25;101181.70;;;-2.35;68.88
65010;BME280;51556;50.002;22.014;2022-12-18T08:54:50;101179.11;;;-2.44;68.58
65010;BME280;51556;50.002;22.014;2022-12-18T08:57:16;101172.43;;;-2.50;68.84
65010;BME280;51556;50.002;22.014;2022-12-18T08:59:41;101180.77;;;-2.42;69.19
65010;BME280;51556;50.002;22.014;2022-12-18T09:02:09;101179.21;;;-2.40;69.10
65010;BME280;51556;50.002;22.014;2022-12-18T09:04:35;101182.67;;;-2.33;69.27
65010;BME280;51556;50.002;22.014;2022-12-18T09:07:00;101183.16;;;-2.34;68.99
65010;BME280;51556;50.002;22.014;2022-12-18T09:09:26;101180.34;;;-2.41;68.76
65010;BME280;51556;50.002;22.014;2022-12-18T09:11:51;101184.16;;;-2.43;69.36
65010;BME280;51556;50.002;22.014;2022-12-18T09:14:16;101186.76;;;-2.40;69.53
65010;BME280;51556;50.002;22.014;2022-12-18T09:16:42;101187.02;;;-2.29;69.58
65010;BME280;51556;50.002;22.014;2022-12-18T09:19:08;101189.17;;;-2.25;69.12
65010;BME280;51556;50.002;22.014;2022-12-18T09:21:35;101192.64;;;-2.28;68.80
65010;BME280;51556;50.002;22.014;2022-12-18T09:24:03;101194.46;;;-2.32;68.66
65010;BME280;51556;50.002;22.014;2022-12-18T09:26:29;101200.40;;;-2.28;69.07
65010;BME280;51556;50.002;22.014;2022-12-18T09:28:55;101198.13;;;-2.28;68.66
65010;BME280;51556;50.002;22.014;2022-12-18T09:31:22;101199.16;;;-2.31;68.57
65010;BME280;51556;50.002;22.014;2022-12-18T09:33:48;101199.96;;;-2.45;68.29
65010;BME280;51556;50.002;22.014;2022-12-18T09:36:16;101195.59;;;-2.46;68.53
65010;BME280;51556;50.002;22.014;2022-12-18T09:38:42;101199.66;;;-2.50;68.77
65010;BME280;51556;50.002;22.014;2022-12-18T09:44:03;101198.34;;;-2.46;69.19
65010;BME280;51556;50.002;22.014;2022-12-18T09:46:37;101200.06;;;-2.40;68.93
65010;BME280;51556;50.002;22.014;2022-12-18T09:49:10;101204.49;;;-2.35;68.86
65010;BME280;51556;50.002;22.014;2022-12-18T09:54:15;101201.91;;;-2.35;68.06
65010;BME280;51556;50.002;22.014;2022-12-18T09:56:43;101202.84;;;-2.27;68.69
65010;BME280;51556;50.002;22.014;2022-12-18T09:59:26;101208.85;;;-2.18;68.26
65010;BME280;51556;50.002;22.014;2022-12-18T10:01:56;101207.33;;;-2.21;68.11
65010;BME280;51556;50.002;22.014;2022-12-18T10:04:21;101207.11;;;-2.21;67.55
65010;BME280;51556;50.002;22.014;2022-12-18T10:07:07;101207.69;;;-2.27;67.19
65010;BME280;51556;50.002;22.014;2022-12-18T10:12:46;101209.06;;;-2.45;67.16
65010;BME280;51556;50.002;22.014;2022-12-18T10:15:30;101212.78;;;-2.50;67.06
65010;BME280;51556;50.002;22.014;2022-12-18T10:18:38;101210.75;;;-2.52;67.46
65010;BME280;51556;50.002;22.014;2022-12-18T10:21:01;101205.98;;;-2.54;67.52
65010;BME280;51556;50.002;22.014;2022-12-18T10:26:10;101202.80;;;-2.58;67.61
65010;BME280;51556;50.002;22.014;2022-12-18T10:28:38;101205.27;;;-2.61;67.67
65010;BME280;51556;50.002;22.014;2022-12-18T10:31:06;101205.94;;;-2.58;68.14
65010;BME280;51556;50.002;22.014;2022-12-18T10:33:33;101211.73;;;-2.69;67.63
65010;BME280;51556;50.002;22.014;2022-12-18T10:35:59;101216.30;;;-2.70;67.93
65010;BME280;51556;50.002;22.014;2022-12-18T10:38:30;101215.15;;;-2.66;68.06
65010;BME280;51556;50.002;22.014;2022-12-18T10:41:05;101211.98;;;-2.58;67.99
65010;BME280;51556;50.002;22.014;2022-12-18T10:43:33;101212.30;;;-2.46;67.99
65010;BME280;51556;50.002;22.014;2022-12-18T10:46:14;101217.34;;;-2.36;67.92
65010;BME280;51556;50.002;22.014;2022-12-18T10:51:24;101222.34;;;-2.24;67.89
65010;BME280;51556;50.002;22.014;2022-12-18T10:53:59;101227.77;;;-2.19;67.50
65010;BME280;51556;50.002;22.014;2022-12-18T10:56:27;101222.70;;;-2.23;66.69
65010;BME280;51556;50.002;22.014;2022-12-18T10:58:58;101222.30;;;-2.28;67.11
65010;BME280;51556;50.002;22.014;2022-12-18T11:01:24;101220.89;;;-2.28;67.53
65010;BME280;51556;50.002;22.014;2022-12-18T11:06:17;101221.56;;;-2.16;67.99
65010;BME280;51556;50.002;22.014;2022-12-18T11:08:56;101223.86;;;-2.15;66.88
65010;BME280;51556;50.002;22.014;2022-12-18T11:11:23;101221.61;;;-2.18;66.91
65010;BME280;51556;50.002;22.014;2022-12-18T11:14:16;101221.57;;;-2.19;67.17
65010;BME280;51556;50.002;22.014;2022-12-18T11:16:46;101220.73;;;-2.15;67.24
65010;BME280;51556;50.002;22.014;2022-12-18T11:21:41;101228.00;;;-2.34;66.45
65010;BME280;51556;50.002;22.014;2022-12-18T11:24:22;101228.27;;;-2.29;67.09
65010;BME280;51556;50.002;22.014;2022-12-18T11:26:51;101226.63;;;-2.37;66.29
65010;BME280;51556;50.002;22.014;2022-12-18T11:29:18;101230.71;;;-2.53;66.22
65010;BME280;51556;50.002;22.014;2022-12-18T11:31:47;101230.05;;;-2.55;66.59
65010;BME280;51556;50.002;22.014;2022-12-18T11:34:21;101226.90;;;-2.65;66.45
65010;BME280;51556;50.002;22.014;2022-12-18T11:36:50;101224.12;;;-2.65;66.04
65010;BME280;51556;50.002;22.014;2022-12-18T11:42:37;101217.52;;;-2.48;66.45
65010;BME280;51556;50.002;22.014;2022-12-18T11:48:05;101220.39;;;-2.34;66.57
65010;BME280;51556;50.002;22.014;2022-12-18T11:50:54;101222.14;;;-2.31;66.22
65010;BME280;51556;50.002;22.014;2022-12-18T11:53:22;101223.13;;;-2.38;66.03
65010;BME280;51556;50.002;22.014;2022-12-18T11:58:47;101231.94;;;-2.58;65.88
65010;BME280;51556;50.002;22.014;2022-12-18T12:18:32;101229.92;;;-2.76;66.26
65010;BME280;51556;50.002;22.014;2022-12-18T12:26:53;101235.88;;;-3.29;67.50
65010;BME280;51556;50.002;22.014;2022-12-18T12:30:00;101239.98;;;-3.24;67.64
65010;BME280;51556;50.002;22.014;2022-12-18T12:32:55;101239.98;;;-3.16;67.06
65010;BME280;51556;50.002;22.014;2022-12-18T12:35:49;101239.34;;;-3.09;66.95
65010;BME280;51556;50.002;22.014;2022-12-18T12:38:32;101246.54;;;-3.16;66.85
65010;BME280;51556;50.002;22.014;2022-12-18T12:41:02;101245.45;;;-3.14;67.22
65010;BME280;51556;50.002;22.014;2022-12-18T12:43:41;101252.33;;;-3.02;67.19
65010;BME280;51556;50.002;22.014;2022-12-18T12:46:13;101254.39;;;-2.99;66.61
65010;BME280;51556;50.002;22.014;2022-12-18T12:48:55;101269.65;;;-3.21;65.58
65010;BME280;51556;50.002;22.014;2022-12-18T12:53:47;101270.48;;;-3.21;66.14
65010;BME280;51556;50.002;22.014;2022-12-18T12:56:16;101275.57;;;-3.11;67.12
65010;BME280;51556;50.002;22.014;2022-12-18T12:58:55;101277.33;;;-3.16;65.95
65010;BME280;51556;50.002;22.014;2022-12-18T13:01:38;101278.31;;;-3.06;66.51
65010;BME280;51556;50.002;22.014;2022-12-18T13:07:27;101281.34;;;-2.84;66.41
65010;BME280;51556;50.002;22.014;2022-12-18T13:20:40;101289.38;;;-2.34;65.47
65010;BME280;51556;50.002;22.014;2022-12-18T13:23:38;101285.08;;;-2.28;65.69
65010;BME280;51556;50.002;22.014;2022-12-18T13:34:18;101310.48;;;-2.09;64.87
65010;BME280;51556;50.002;22.014;2022-12-18T13:36:43;101320.63;;;-2.07;64.42
65010;BME280;51556;50.002;22.014;2022-12-18T13:41:34;101329.51;;;-2.11;64.74
65010;BME280;51556;50.002;22.014;2022-12-18T13:46:47;101335.22;;;-2.14;65.05
65010;BME280;51556;50.002;22.014;2022-12-18T13:51:49;101345.73;;;-2.23;64.43
65010;BME280;51556;50.002;22.014;2022-12-18T13:56:52;101361.27;;;-2.41;65.00
65010;BME280;51556;50.002;22.014;2022-12-18T13:59:22;101366.27;;;-2.41;65.14
65010;BME280;51556;50.002;22.014;2022-12-18T14:01:58;101373.80;;;-2.42;65.23
65010;BME280;51556;50.002;22.014;2022-12-18T14:04:32;101371.36;;;-2.33;65.31
65010;BME280;51556;50.002;22.014;2022-12-18T14:07:06;101373.81;;;-2.24;65.40
65010;BME280;51556;50.002;22.014;2022-12-18T14:09:39;101386.06;;;-2.24;65.26
65010;BME280;51556;50.002;22.014;2022-12-18T14:12:05;101394.15;;;-2.33;64.83
65010;BME280;51556;50.002;22.014;2022-12-18T14:14:52;101402.30;;;-2.53;64.78
65010;BME280;51556;50.002;22.014;2022-12-18T14:17:18;101407.99;;;-2.55;65.14
65010;BME280;51556;50.002;22.014;2022-12-18T14:19:46;101404.34;;;-2.55;65.61
65010;BME280;51556;50.002;22.014;2022-12-18T14:22:21;101400.73;;;-2.58;65.52
65010;BME280;51556;50.002;22.014;2022-12-18T14:25:10;101397.14;;;-2.57;65.43
65010;BME280;51556;50.002;22.014;2022-12-18T14:28:25;101400.77;;;-2.52;65.63
65010;BME280;51556;50.002;22.014;2022-12-18T14:30:41;101408.16;;;-2.41;65.46
65010;BME280;51556;50.002;22.014;2022-12-18T14:35:38;101404.41;;;-2.40;64.57
65010;BME280;51556;50.002;22.014;2022-12-18T14:38:22;101407.86;;;-2.37;64.14
65010;BME280;51556;50.002;22.014;2022-12-18T14:40:51;101414.67;;;-2.36;63.63
65010;BME280;51556;50.002;22.014;2022-12-18T14:43:17;101414.19;;;-2.38;63.97
65010;BME280;51556;50.002;22.014;2022-12-18T14:45:43;101414.56;;;-2.40;63.79
65010;BME280;51556;50.002;22.014;2022-12-18T14:50:41;101411.46;;;-2.43;63.62
65010;BME280;51556;50.002;22.014;2022-12-18T14:53:19;101411.61;;;-2.47;63.67